Mc Allister Sisters — WAE7159 — position and weather

sailwx.info

Track history (hours):
 
Tides and Currents Weather Stations Pressure Air Temp Water Temp Dewpoint Dewpoint Depression Visibility Wind Speed Wind Dir Waves Ship Positions

Mc Allister Sisters

Owner: MC ALLISTER BROS INC, NEW YORK, NY. More information available from US FCC via Universal Licensing System and Coast Guard Vessel Documentation Center.

Last reported at 2018-Feb-22 16:15 UTC. Time now 2018-Feb-22 16:44 UTC.
Position N 40°33' W 074°14'.

Length 30 m; draft 4.8 m.

Type: Tug. MMSI: 366966210.

Date/timePositionNaut miles runAvg speedWind from/ knotsBaromVisibWave heightAir tempDewpointWater temp
2018-Feb-22 16:15N 40°33' W 074°14'3 4.8
2018-Feb-22 15:39N 40°36' W 074°12'1 4.1
2018-Feb-22 15:29N 40°37' W 074°12'1 2.9
2018-Feb-22 14:59N 40°38' W 074°12'0 1.0
2018-Feb-22 14:29N 40°38' W 074°12'1 3.0
2018-Feb-22 14:01N 40°38' W 074°10'0 0.0
2018-Feb-22 13:30N 40°38' W 074°10'0 0.0
2018-Feb-22 13:00N 40°38' W 074°10'0 0.0
2018-Feb-22 12:30N 40°38' W 074°10'0 0.0
2018-Feb-22 12:00N 40°38' W 074°10'0 0.0
2018-Feb-22 11:30N 40°38' W 074°10'1 2.3
2018-Feb-22 11:00N 40°39' W 074°11'0 0.6
2018-Feb-22 10:29N 40°39' W 074°11'3 5.8
2018-Feb-22 10:01N 40°39' W 074°07'1 2.8
2018-Feb-22 09:30N 40°40' W 074°09'1 1.5
2018-Feb-22 09:00N 40°40' W 074°08'0 0.0
2018-Feb-22 08:30N 40°40' W 074°08'0 0.0
2018-Feb-22 08:00N 40°40' W 074°08'0 0.0
2018-Feb-22 07:31N 40°40' W 074°08'0 0.0
2018-Feb-22 07:00N 40°40' W 074°08'0 0.0
2018-Feb-22 06:30N 40°40' W 074°08'0 0.0
2018-Feb-22 06:01N 40°40' W 074°08'0 0.0
2018-Feb-22 05:31N 40°40' W 074°08'0 0.0
2018-Feb-22 05:01N 40°40' W 074°08'0 0.0
2018-Feb-22 04:30N 40°40' W 074°08'0 0.0
2018-Feb-22 04:01N 40°40' W 074°08'0 0.0
2018-Feb-22 03:30N 40°40' W 074°08'1 1.8
2018-Feb-22 03:00N 40°40' W 074°09'0 0.1
2018-Feb-22 02:31N 40°40' W 074°09'0 0.3
2018-Feb-22 02:00N 40°40' W 074°09'0 0.0
2018-Feb-22 01:30N 40°40' W 074°09'0 0.7
2018-Feb-22 01:00N 40°40' W 074°09'0 1.0
2018-Feb-22 00:30N 40°40' W 074°08'0 0.0
2018-Feb-22 00:00N 40°40' W 074°08'0 0.0
2018-Feb-21 23:30N 40°40' W 074°08'0 0.0
2018-Feb-21 23:00N 40°40' W 074°08'0 0.0
2018-Feb-21 22:30N 40°40' W 074°08'0 0.0
2018-Feb-21 22:01N 40°40' W 074°08'0 0.0
2018-Feb-21 21:31N 40°40' W 074°08'0 0.0
2018-Feb-21 21:00N 40°40' W 074°08'0 0.0
2018-Feb-21 20:31N 40°40' W 074°08'0 0.1
2018-Feb-21 20:00N 40°40' W 074°08'0 0.1
2018-Feb-21 19:31N 40°40' W 074°08'0 0.0
2018-Feb-21 19:00N 40°40' W 074°08'3 5.8
2018-Feb-21 18:30N 40°39' W 074°11'3 1.9
2018-Feb-21 17:04N 40°36' W 074°12'0 0.5
2018-Feb-21 16:58N 40°36' W 074°12'1 3.1
2018-Feb-21 16:30N 40°35' W 074°13'2 3.8
2018-Feb-21 15:59N 40°33' W 074°15'1 0.4
2018-Feb-21 14:46N 40°33' W 074°14'3 3.0
2018-Feb-21 13:47N 40°36' W 074°12'0 0.4
2018-Feb-21 13:28N 40°36' W 074°12'0 0.2
2018-Feb-21 12:39N 40°36' W 074°12'0 0.0
2018-Feb-21 11:16N 40°36' W 074°12'0 0.0
2018-Feb-21 11:00N 40°36' W 074°12'0 0.0
2018-Feb-21 10:28N 40°36' W 074°12'0 0.0
2018-Feb-21 09:53N 40°36' W 074°12'0 0.0
2018-Feb-21 09:29N 40°36' W 074°12'0 0.0
2018-Feb-21 05:55N 40°36' W 074°12'1 1.8
2018-Feb-21 05:25N 40°35' W 074°13'1 2.3
2018-Feb-21 04:51N 40°36' W 074°12'0 0.4
2018-Feb-21 03:49N 40°36' W 074°12'2 6.6
2018-Feb-21 03:29N 40°38' W 074°12'4 9.0
2018-Feb-21 03:00N 40°39' W 074°06'2 3.5
2018-Feb-21 02:30N 40°40' W 074°05'0 0.0
2018-Feb-21 02:00N 40°40' W 074°05'0 0.0
2018-Feb-21 01:30N 40°40' W 074°05'0 0.0
2018-Feb-21 01:00N 40°40' W 074°05'0 0.0
2018-Feb-21 00:31N 40°40' W 074°05'0 0.0
2018-Feb-21 00:00N 40°40' W 074°05'0 0.0
2018-Feb-20 23:30N 40°40' W 074°05'0 0.0
2018-Feb-20 23:00N 40°40' W 074°05'0 0.0
2018-Feb-20 22:30N 40°40' W 074°05'0 0.0
2018-Feb-20 22:00N 40°40' W 074°05'0 0.0
2018-Feb-20 21:31N 40°40' W 074°05'0 0.0
2018-Feb-20 21:00N 40°40' W 074°05'0 0.0
2018-Feb-20 20:31N 40°40' W 074°05'0 0.3
2018-Feb-20 20:00N 40°40' W 074°05'0 0.0
2018-Feb-20 19:30N 40°40' W 074°05'0 0.1
2018-Feb-20 19:00N 40°40' W 074°05'2 3.5
2018-Feb-20 18:30N 40°39' W 074°06'1 1.0
2018-Feb-20 18:00N 40°39' W 074°07'0 0.0
2018-Feb-20 17:30N 40°39' W 074°07'2 4.9
2018-Feb-20 17:01N 40°40' W 074°04'0 0.0
2018-Feb-20 16:30N 40°40' W 074°04'1 2.6
2018-Feb-20 16:01N 40°39' W 074°05'1 2.7
2018-Feb-20 15:31N 40°39' W 074°07'2 3.5
2018-Feb-20 15:01N 40°39' W 074°05'2 3.2
2018-Feb-20 14:31N 40°38' W 074°03'1 2.6
2018-Feb-20 14:01N 40°39' W 074°04'4 8.2
2018-Feb-20 13:30N 40°38' W 074°10'0 0.0
2018-Feb-20 13:00N 40°38' W 074°10'1 2.2
2018-Feb-20 12:29N 40°39' W 074°11'3 6.1
2018-Feb-20 12:00N 40°36' W 074°12'0 0.0
2018-Feb-20 11:30N 40°36' W 074°12'0 0.2
2018-Feb-20 10:59N 40°36' W 074°12'0 0.7
2018-Feb-20 10:28N 40°36' W 074°12'2 4.9
2018-Feb-20 10:00N 40°38' W 074°12'1 2.6
2018-Feb-20 09:30N 40°38' W 074°10'0 0.0
2018-Feb-20 09:00N 40°38' W 074°10'0 0.0
2018-Feb-20 08:30N 40°38' W 074°10'0 0.0
2018-Feb-20 08:00N 40°38' W 074°10'0 0.0
2018-Feb-20 07:30N 40°38' W 074°10'0 0.0
2018-Feb-20 07:00N 40°38' W 074°10'0 0.0
2018-Feb-20 06:31N 40°38' W 074°10'0 0.0
2018-Feb-20 05:59N 40°38' W 074°10'0 0.0
2018-Feb-20 05:29N 40°38' W 074°10'0 0.0
2018-Feb-20 05:00N 40°38' W 074°10'0 0.0
2018-Feb-20 04:29N 40°38' W 074°10'0 0.0
2018-Feb-20 04:00N 40°38' W 074°10'0 0.0
2018-Feb-20 03:30N 40°38' W 074°10'0 0.0
2018-Feb-20 03:00N 40°38' W 074°10'0 0.0
2018-Feb-20 02:30N 40°38' W 074°10'0 0.0
2018-Feb-20 02:00N 40°38' W 074°10'0 0.0
2018-Feb-20 01:29N 40°38' W 074°10'0 0.0
2018-Feb-20 01:00N 40°38' W 074°10'0 0.0
2018-Feb-20 00:31N 40°38' W 074°10'0 0.0
2018-Feb-19 23:59N 40°38' W 074°10'1 1.6
2018-Feb-19 23:30N 40°39' W 074°09'1 1.2
2018-Feb-19 23:00N 40°40' W 074°09'2 3.5
2018-Feb-19 22:30N 40°39' W 074°06'2 4.1
2018-Feb-19 22:00N 40°39' W 074°04'0 0.5
2018-Feb-19 21:30N 40°39' W 074°04'1 1.3
2018-Feb-19 21:00N 40°39' W 074°04'1 2.6
2018-Feb-19 20:30N 40°40' W 074°05'0 0.0
2018-Feb-19 20:00N 40°40' W 074°05'0 0.0
2018-Feb-19 19:30N 40°40' W 074°05'0 0.0
2018-Feb-19 19:00N 40°40' W 074°05'0 0.0
2018-Feb-19 18:30N 40°40' W 074°05'0 0.0
2018-Feb-19 18:00N 40°40' W 074°05'0 0.0
2018-Feb-19 17:30N 40°40' W 074°05'0 0.0
2018-Feb-19 17:00N 40°40' W 074°05'0 0.0
2018-Feb-19 16:30N 40°40' W 074°05'2 3.0
2018-Feb-19 16:00N 40°39' W 074°03'0 0.9
2018-Feb-19 15:31N 40°40' W 074°04'1 2.0
2018-Feb-19 15:00N 40°40' W 074°05'0 0.0
2018-Feb-19 14:30N 40°40' W 074°05'0 0.0
2018-Feb-19 14:01N 40°40' W 074°05'0 0.0
2018-Feb-19 13:30N 40°40' W 074°05'0 0.0
2018-Feb-19 13:00N 40°40' W 074°05'0 0.0
2018-Feb-19 12:30N 40°40' W 074°05'0 0.0
2018-Feb-19 12:00N 40°40' W 074°05'3 6.1
2018-Feb-19 11:30N 40°41' W 074°01'3 5.2
2018-Feb-19 11:01N 40°42' W 073°58'0 0.7
2018-Feb-19 10:30N 40°42' W 073°59'2 4.9
2018-Feb-19 10:00N 40°41' W 074°01'3 5.9
2018-Feb-19 09:30N 40°40' W 074°05'0 0.0
2018-Feb-19 09:00N 40°40' W 074°05'0 0.0
2018-Feb-19 08:30N 40°40' W 074°05'0 0.0
2018-Feb-19 08:00N 40°40' W 074°05'0 0.0
2018-Feb-19 07:30N 40°40' W 074°05'0 0.0
2018-Feb-19 07:00N 40°40' W 074°05'0 0.0
2018-Feb-19 06:30N 40°40' W 074°05'0 0.0
2018-Feb-19 06:00N 40°40' W 074°05'0 0.0
2018-Feb-19 05:30N 40°40' W 074°05'0 0.0
2018-Feb-19 05:00N 40°40' W 074°05'0 0.0
2018-Feb-19 04:30N 40°40' W 074°05'0 0.0
2018-Feb-19 04:00N 40°40' W 074°05'0 0.0
2018-Feb-19 03:30N 40°40' W 074°05'0 0.0
2018-Feb-19 03:00N 40°40' W 074°05'0 0.0
2018-Feb-19 02:30N 40°40' W 074°05'0 0.0
2018-Feb-19 02:00N 40°40' W 074°05'0 0.0
2018-Feb-19 01:30N 40°40' W 074°05'0 0.0
2018-Feb-19 00:59N 40°40' W 074°05'0 0.0
2018-Feb-19 00:30N 40°40' W 074°05'0 0.0
2018-Feb-19 00:01N 40°40' W 074°05'0 0.0
2018-Feb-18 23:29N 40°40' W 074°05'0 0.0
2018-Feb-18 23:00N 40°40' W 074°05'0 0.0
2018-Feb-18 22:29N 40°40' W 074°05'0 0.0
2018-Feb-18 22:00N 40°40' W 074°05'0 0.5
2018-Feb-18 21:30N 40°40' W 074°05'2 3.1
2018-Feb-18 20:59N 40°39' W 074°03'2 3.7
2018-Feb-18 20:30N 40°37' W 074°03'3 5.3
2018-Feb-18 20:00N 40°39' W 074°06'2 4.6
2018-Feb-18 19:30N 40°40' W 074°08'0 0.0
2018-Feb-18 19:00N 40°40' W 074°08'0 0.0
2018-Feb-18 18:30N 40°40' W 074°08'0 0.0
2018-Feb-18 18:00N 40°40' W 074°08'0 0.0
2018-Feb-18 17:30N 40°40' W 074°08'0 0.0
2018-Feb-18 17:00N 40°40' W 074°08'0 0.0
2018-Feb-18 16:31N 40°40' W 074°08'0 0.0
2018-Feb-18 16:00N 40°40' W 074°08'0 0.0
2018-Feb-18 15:30N 40°40' W 074°08'0 0.0
2018-Feb-18 14:59N 40°40' W 074°08'0 0.1
2018-Feb-18 14:30N 40°40' W 074°08'0 0.0
2018-Feb-18 13:59N 40°40' W 074°08'0 0.0
2018-Feb-18 13:30N 40°40' W 074°08'0 0.0
2018-Feb-18 13:00N 40°40' W 074°08'0 0.0
2018-Feb-18 12:29N 40°40' W 074°08'0 0.0
2018-Feb-18 12:00N 40°40' W 074°08'0 0.0
2018-Feb-18 11:30N 40°40' W 074°08'0 0.0
2018-Feb-18 11:00N 40°40' W 074°08'0 0.0
2018-Feb-18 10:30N 40°40' W 074°08'0 0.0
2018-Feb-18 10:00N 40°40' W 074°08'1 2.7
2018-Feb-18 09:29N 40°39' W 074°09'2 3.2
2018-Feb-18 09:00N 40°39' W 074°07'2 5.0
2018-Feb-18 08:30N 40°39' W 074°04'2 3.2
2018-Feb-18 08:01N 40°39' W 074°06'0 0.0
2018-Feb-18 07:30N 40°39' W 074°06'2 4.8
2018-Feb-18 07:00N 40°38' W 074°09'3 5.1
2018-Feb-18 06:31N 40°38' W 074°12'5 7.3
2018-Feb-18 05:53N 40°33' W 074°14'1 0.4
2018-Feb-18 02:17N 40°32' W 074°15'1 3.5
2018-Feb-18 01:54N 40°33' W 074°14'3 4.2
2018-Feb-18 01:08N 40°36' W 074°12'1 4.4
2018-Feb-18 00:59N 40°37' W 074°12'2 3.9
2018-Feb-18 00:30N 40°39' W 074°11'2 4.9
2018-Feb-18 00:00N 40°39' W 074°08'2 4.0
2018-Feb-17 23:30N 40°39' W 074°06'0 0.5
2018-Feb-17 22:59N 40°39' W 074°06'0 0.0
2018-Feb-17 22:30N 40°39' W 074°06'0 0.0
2018-Feb-17 22:00N 40°39' W 074°06'0 0.0
2018-Feb-17 21:30N 40°39' W 074°06'0 0.0
2018-Feb-17 21:00N 40°39' W 074°06'1 1.6
2018-Feb-17 20:30N 40°39' W 074°05'0 0.5
2018-Feb-17 20:00N 40°39' W 074°05'4 7.0
2018-Feb-17 19:29N 40°38' W 074°10'0 0.0
2018-Feb-17 19:00N 40°38' W 074°10'0 0.0
2018-Feb-17 18:30N 40°38' W 074°10'0 0.0
2018-Feb-17 18:00N 40°38' W 074°10'0 0.0
2018-Feb-17 17:30N 40°38' W 074°10'0 0.0
2018-Feb-17 17:00N 40°38' W 074°10'0 0.0
2018-Feb-17 16:29N 40°38' W 074°10'0 0.0
2018-Feb-17 15:59N 40°38' W 074°10'0 0.0
2018-Feb-17 15:30N 40°38' W 074°10'0 0.0
2018-Feb-17 15:00N 40°38' W 074°10'0 0.0
2018-Feb-17 14:30N 40°38' W 074°10'0 0.0
2018-Feb-17 14:00N 40°38' W 074°10'0 0.2
2018-Feb-17 13:30N 40°38' W 074°10'2 4.4
2018-Feb-17 12:59N 40°40' W 074°08'0 0.0
2018-Feb-17 12:30N 40°40' W 074°08'0 0.0
2018-Feb-17 12:01N 40°40' W 074°08'0 0.0
2018-Feb-17 11:30N 40°40' W 074°08'0 0.0
2018-Feb-17 11:00N 40°40' W 074°08'0 0.0
2018-Feb-17 10:30N 40°40' W 074°08'2 3.7
2018-Feb-17 10:01N 40°39' W 074°09'1 2.6
2018-Feb-17 09:29N 40°40' W 074°08'0 0.5
2018-Feb-17 09:00N 40°40' W 074°09'1 3.0
2018-Feb-17 08:30N 40°38' W 074°09'0 0.8
2018-Feb-17 08:00N 40°38' W 074°10'0 0.0
2018-Feb-17 07:30N 40°38' W 074°10'0 0.0
2018-Feb-17 07:00N 40°38' W 074°10'0 0.0
2018-Feb-17 06:31N 40°38' W 074°10'0 0.0
2018-Feb-17 06:00N 40°38' W 074°10'0 0.0
2018-Feb-17 05:29N 40°38' W 074°10'0 0.0
2018-Feb-17 05:00N 40°38' W 074°10'0 0.0
2018-Feb-17 04:30N 40°38' W 074°10'0 0.0
2018-Feb-17 04:00N 40°38' W 074°10'0 0.0
2018-Feb-17 03:30N 40°38' W 074°10'0 0.0
2018-Feb-17 03:00N 40°38' W 074°10'0 0.0
2018-Feb-17 02:30N 40°38' W 074°10'0 0.0
2018-Feb-17 02:01N 40°38' W 074°10'0 0.0
2018-Feb-17 01:30N 40°38' W 074°10'0 0.0
2018-Feb-17 01:00N 40°38' W 074°10'0 0.0
2018-Feb-17 00:30N 40°38' W 074°10'0 0.0
2018-Feb-17 00:00N 40°38' W 074°10'2 4.7
2018-Feb-16 23:31N 40°41' W 074°08'0 0.7
2018-Feb-16 23:00N 40°41' W 074°09'1 1.2
2018-Feb-16 22:30N 40°40' W 074°08'2 3.5
2018-Feb-16 22:01N 40°39' W 074°08'3 6.3
2018-Feb-16 21:30N 40°39' W 074°04'1 1.9
2018-Feb-16 21:00N 40°40' W 074°04'0 0.0
2018-Feb-16 20:30N 40°40' W 074°04'0 0.0
2018-Feb-16 20:00N 40°40' W 074°04'1 1.3
2018-Feb-16 19:30N 40°39' W 074°03'1 2.1
2018-Feb-16 19:01N 40°40' W 074°05'0 0.7
2018-Feb-16 18:30N 40°40' W 074°05'0 0.0
2018-Feb-16 18:01N 40°40' W 074°05'0 0.0
2018-Feb-16 17:31N 40°40' W 074°05'0 0.0
2018-Feb-16 17:01N 40°40' W 074°05'0 0.0
2018-Feb-16 16:30N 40°40' W 074°05'0 0.0
2018-Feb-16 16:00N 40°40' W 074°05'0 0.0
2018-Feb-16 15:30N 40°40' W 074°05'0 0.0
2018-Feb-16 15:01N 40°40' W 074°05'1 1.3
2018-Feb-16 14:30N 40°40' W 074°04'0 0.0
2018-Feb-16 13:59N 40°40' W 074°04'2 5.0
2018-Feb-16 13:30N 40°38' W 074°03'2 3.7
2018-Feb-16 13:00N 40°40' W 074°04'1 1.1
2018-Feb-16 12:30N 40°40' W 074°04'0 0.0
2018-Feb-16 12:00N 40°40' W 074°04'0 0.0
2018-Feb-16 11:30N 40°40' W 074°04'0 0.0
2018-Feb-16 11:00N 40°40' W 074°04'0 0.0
2018-Feb-16 10:30N 40°40' W 074°04'0 0.0
2018-Feb-16 10:00N 40°40' W 074°04'0 0.0
2018-Feb-16 09:30N 40°40' W 074°04'0 0.0
2018-Feb-16 09:00N 40°40' W 074°04'0 0.0
2018-Feb-16 08:30N 40°40' W 074°04'0 0.0
2018-Feb-16 08:00N 40°40' W 074°04'0 0.9
2018-Feb-16 07:30N 40°40' W 074°04'1 1.5
2018-Feb-16 07:00N 40°39' W 074°05'0 0.0
2018-Feb-16 06:30N 40°39' W 074°05'1 1.7
2018-Feb-16 06:00N 40°39' W 074°06'3 5.6
2018-Feb-16 05:30N 40°38' W 074°10'0 0.0
2018-Feb-16 04:59N 40°38' W 074°10'0 0.0
2018-Feb-16 04:29N 40°38' W 074°10'0 0.0
2018-Feb-16 04:00N 40°38' W 074°10'0 0.0
2018-Feb-16 03:30N 40°38' W 074°10'0 0.0
2018-Feb-16 03:00N 40°38' W 074°10'0 0.0
2018-Feb-16 02:30N 40°38' W 074°10'0 0.0
2018-Feb-16 02:00N 40°38' W 074°10'0 0.0
2018-Feb-16 01:29N 40°38' W 074°10'0 0.0
2018-Feb-16 00:59N 40°38' W 074°10'1 1.4
2018-Feb-16 00:30N 40°39' W 074°11'4 7.0
2018-Feb-16 00:00N 40°35' W 074°12'0 0.3
2018-Feb-15 23:18N 40°35' W 074°12'0 0.3
2018-Feb-15 23:00N 40°35' W 074°12'1 3.0
2018-Feb-15 22:30N 40°34' W 074°13'1 2.6
2018-Feb-15 22:00N 40°33' W 074°14'1 1.0
2018-Feb-15 21:24N 40°33' W 074°14'2 4.9
2018-Feb-15 20:59N 40°35' W 074°12'2 5.2
2018-Feb-15 20:30N 40°38' W 074°12'2 4.5
2018-Feb-15 20:00N 40°39' W 074°10'3 6.2
2018-Feb-15 19:30N 40°39' W 074°05'0 0.7
2018-Feb-15 18:58N 40°39' W 074°05'0 0.0
2018-Feb-15 18:30N 40°39' W 074°05'0 0.4
2018-Feb-15 18:00N 40°39' W 074°05'1 1.8
2018-Feb-15 17:30N 40°40' W 074°04'0 0.8
2018-Feb-15 17:00N 40°40' W 074°05'0 0.0
2018-Feb-15 16:30N 40°40' W 074°05'0 0.0
2018-Feb-15 16:00N 40°40' W 074°05'0 0.0
2018-Feb-15 15:30N 40°40' W 074°05'0 0.0
2018-Feb-15 15:00N 40°40' W 074°05'2 3.3
2018-Feb-15 14:30N 40°41' W 074°03'0 0.7
2018-Feb-15 14:00N 40°41' W 074°03'3 5.1
2018-Feb-15 13:30N 40°38' W 074°04'0 0.1
2018-Feb-15 13:00N 40°38' W 074°04'1 2.9
2018-Feb-15 12:30N 40°39' W 074°06'3 5.0
2018-Feb-15 12:00N 40°40' W 074°09'1 1.1
2018-Feb-15 11:30N 40°39' W 074°09'2 3.1
2018-Feb-15 11:00N 40°39' W 074°07'0 0.6
2018-Feb-15 10:30N 40°39' W 074°07'2 3.9
2018-Feb-15 10:00N 40°39' W 074°10'1 2.2
2018-Feb-15 09:29N 40°39' W 074°11'0 0.4
2018-Feb-15 09:00N 40°38' W 074°11'0 0.3
2018-Feb-15 08:29N 40°38' W 074°12'2 3.9
2018-Feb-15 08:00N 40°37' W 074°12'1 2.4
2018-Feb-15 07:30N 40°35' W 074°12'0 0.0
2018-Feb-15 07:00N 40°35' W 074°12'0 0.0
2018-Feb-15 06:30N 40°35' W 074°12'0 0.0
2018-Feb-15 06:00N 40°35' W 074°12'0 0.0
2018-Feb-15 05:30N 40°35' W 074°12'0 0.0
2018-Feb-15 05:00N 40°35' W 074°12'0 0.0
2018-Feb-15 04:30N 40°35' W 074°12'0 0.0
2018-Feb-15 04:00N 40°35' W 074°12'0 0.0
2018-Feb-15 03:30N 40°35' W 074°12'0 0.0
2018-Feb-15 02:58N 40°35' W 074°12'0 0.0
2018-Feb-15 02:29N 40°35' W 074°12'0 0.0
2018-Feb-14 22:07N 40°35' W 074°12'0 0.0
2018-Feb-14 21:59N 40°35' W 074°12'0 0.0
2018-Feb-14 21:30N 40°35' W 074°12'0 0.0
2018-Feb-14 21:00N 40°35' W 074°12'2 5.0
2018-Feb-14 20:30N 40°33' W 074°14'1 1.1
2018-Feb-14 19:36N 40°33' W 074°15'1 5.5
2018-Feb-14 19:24N 40°33' W 074°14'4 9.4
2018-Feb-14 19:00N 40°37' W 074°12'2 4.7
2018-Feb-14 18:30N 40°38' W 074°10'0 0.0
2018-Feb-14 18:00N 40°38' W 074°10'0 0.0
2018-Feb-14 17:30N 40°38' W 074°10'0 0.0
2018-Feb-14 17:00N 40°38' W 074°10'0 0.0
2018-Feb-14 16:30N 40°38' W 074°10'0 0.0
2018-Feb-14 16:00N 40°38' W 074°10'2 4.8
2018-Feb-14 15:30N 40°39' W 074°07'1 1.2
2018-Feb-14 15:00N 40°39' W 074°06'0 0.1
2018-Feb-14 14:30N 40°39' W 074°06'2 4.6
2018-Feb-14 14:00N 40°39' W 074°09'3 5.8
2018-Feb-14 13:30N 40°42' W 074°08'0 0.1
2018-Feb-14 13:00N 40°42' W 074°08'2 4.9
2018-Feb-14 12:30N 40°39' W 074°09'0 0.6
2018-Feb-14 12:00N 40°39' W 074°09'2 3.3
2018-Feb-14 11:28N 40°39' W 074°11'0 0.6
2018-Feb-14 11:00N 40°39' W 074°11'3 6.2
2018-Feb-14 10:30N 40°39' W 074°07'3 6.5
2018-Feb-14 10:00N 40°38' W 074°03'2 4.5
2018-Feb-14 09:30N 40°39' W 074°05'3 6.8
2018-Feb-14 09:00N 40°38' W 074°10'0 0.0
2018-Feb-14 08:30N 40°38' W 074°10'0 0.0
2018-Feb-14 08:00N 40°38' W 074°10'0 0.0
2018-Feb-14 07:29N 40°38' W 074°10'0 0.0
2018-Feb-14 07:00N 40°38' W 074°10'0 0.0
2018-Feb-14 06:28N 40°38' W 074°10'2 4.1
2018-Feb-14 06:00N 40°40' W 074°08'0 0.4
2018-Feb-14 05:30N 40°40' W 074°08'0 0.1
2018-Feb-14 05:00N 40°40' W 074°08'2 3.9
2018-Feb-14 04:30N 40°38' W 074°10'0 0.3
2018-Feb-14 04:00N 40°38' W 074°10'0 0.0
2018-Feb-14 03:30N 40°38' W 074°10'0 0.0
2018-Feb-14 03:00N 40°38' W 074°10'0 0.0
2018-Feb-14 02:28N 40°38' W 074°10'0 0.0
2018-Feb-14 02:00N 40°38' W 074°10'0 0.0
2018-Feb-14 01:30N 40°38' W 074°10'0 0.0
2018-Feb-14 01:00N 40°38' W 074°10'0 0.0
2018-Feb-14 00:29N 40°38' W 074°10'0 0.0
2018-Feb-14 00:00N 40°38' W 074°10'1 1.2
2018-Feb-13 23:30N 40°38' W 074°09'2 3.9
2018-Feb-13 23:00N 40°39' W 074°07'3 5.5
2018-Feb-13 22:30N 40°40' W 074°03'1 1.2
2018-Feb-13 22:00N 40°40' W 074°03'1 2.0
2018-Feb-13 21:30N 40°40' W 074°04'0 0.0
2018-Feb-13 21:00N 40°40' W 074°04'0 0.0
2018-Feb-13 20:30N 40°40' W 074°04'0 0.0
2018-Feb-13 20:00N 40°40' W 074°04'0 0.5
2018-Feb-13 19:30N 40°40' W 074°04'3 5.3
2018-Feb-13 19:00N 40°37' W 074°03'3 5.7
2018-Feb-13 18:30N 40°40' W 074°04'0 0.0
2018-Feb-13 18:00N 40°40' W 074°04'0 0.0
2018-Feb-13 17:30N 40°40' W 074°04'0 0.0
2018-Feb-13 17:00N 40°40' W 074°04'0 0.0
2018-Feb-13 16:30N 40°40' W 074°04'0 0.0
2018-Feb-13 16:00N 40°40' W 074°04'0 0.0
2018-Feb-13 15:30N 40°40' W 074°04'2 3.7
2018-Feb-13 15:00N 40°39' W 074°06'0 0.1
2018-Feb-13 14:30N 40°39' W 074°06'0 0.0
2018-Feb-13 14:00N 40°39' W 074°06'1 1.0
2018-Feb-13 13:30N 40°39' W 074°05'2 4.4
2018-Feb-13 13:00N 40°38' W 074°03'2 4.5
2018-Feb-13 12:30N 40°40' W 074°04'0 0.1
2018-Feb-13 12:00N 40°40' W 074°04'0 0.0
2018-Feb-13 11:30N 40°40' W 074°04'0 0.0
2018-Feb-13 11:00N 40°40' W 074°04'0 0.0
2018-Feb-13 10:30N 40°40' W 074°04'0 0.0
2018-Feb-13 10:00N 40°40' W 074°04'0 0.0
2018-Feb-13 09:30N 40°40' W 074°04'0 0.0
2018-Feb-13 09:00N 40°40' W 074°04'0 0.0
2018-Feb-13 08:30N 40°40' W 074°04'1 1.5
2018-Feb-13 08:00N 40°40' W 074°03'5 9.3
2018-Feb-13 07:30N 40°43' W 073°59'0 0.5
2018-Feb-13 07:00N 40°43' W 073°58'2 3.2
2018-Feb-13 06:30N 40°42' W 074°00'2 4.3
2018-Feb-13 06:00N 40°40' W 074°02'1 2.8
2018-Feb-13 05:30N 40°40' W 074°04'0 0.0
2018-Feb-13 05:00N 40°40' W 074°04'0 0.0
2018-Feb-13 04:30N 40°40' W 074°04'0 0.0
2018-Feb-13 04:00N 40°40' W 074°04'0 0.0
2018-Feb-13 03:30N 40°40' W 074°04'0 0.0
2018-Feb-13 03:00N 40°40' W 074°04'0 0.0
2018-Feb-13 02:30N 40°40' W 074°04'0 0.0
2018-Feb-13 02:00N 40°40' W 074°04'0 0.0
2018-Feb-13 01:30N 40°40' W 074°04'0 0.9
2018-Feb-13 01:00N 40°40' W 074°04'0 0.8
2018-Feb-13 00:31N 40°40' W 074°04'0 0.1
2018-Feb-13 00:00N 40°40' W 074°04'0 0.0
2018-Feb-12 23:30N 40°40' W 074°04'1 1.8
2018-Feb-12 23:01N 40°39' W 074°03'1 2.6
2018-Feb-12 22:29N 40°40' W 074°05'0 0.0
2018-Feb-12 22:00N 40°40' W 074°05'2 3.2
2018-Feb-12 21:30N 40°39' W 074°06'1 2.3
2018-Feb-12 21:00N 40°39' W 074°07'3 6.0
2018-Feb-12 20:30N 40°38' W 074°03'1 2.5
2018-Feb-12 20:00N 40°37' W 074°03'4 8.2
2018-Feb-12 19:29N 40°39' W 074°08'1 2.5
2018-Feb-12 19:00N 40°38' W 074°10'0 0.0
2018-Feb-12 18:28N 40°38' W 074°10'2 5.1
2018-Feb-12 18:00N 40°40' W 074°08'0 0.0
2018-Feb-12 17:30N 40°40' W 074°08'0 0.0
2018-Feb-12 17:00N 40°40' W 074°08'0 0.0
2018-Feb-12 16:30N 40°40' W 074°08'  
Track history (hours):
 
Tides and Currents Weather Stations Pressure Air Temp Water Temp Dewpoint Dewpoint Depression Visibility Wind Speed Wind Dir Waves Ship Positions

Mc Allister Sisters

Owner: MC ALLISTER BROS INC, NEW YORK, NY. More information available from US FCC via Universal Licensing System and Coast Guard Vessel Documentation Center.

Last reported at 2018-Feb-22 16:15 UTC. Time now 2018-Feb-22 16:44 UTC.
Position N 40°33' W 074°14'.

Length 30 m; draft 4.8 m.

Type: Tug. MMSI: 366966210.

Date/timePositionNaut miles runAvg speedWind from/ knotsBaromVisibWave heightAir tempDewpointWater temp
2018-Feb-22 16:15N 40°33' W 074°14'3 4.8
2018-Feb-22 15:39N 40°36' W 074°12'1 4.1
2018-Feb-22 15:29N 40°37' W 074°12'1 2.9
2018-Feb-22 14:59N 40°38' W 074°12'0 1.0
2018-Feb-22 14:29N 40°38' W 074°12'1 3.0
2018-Feb-22 14:01N 40°38' W 074°10'0 0.0
2018-Feb-22 13:30N 40°38' W 074°10'0 0.0
2018-Feb-22 13:00N 40°38' W 074°10'0 0.0
2018-Feb-22 12:30N 40°38' W 074°10'0 0.0
2018-Feb-22 12:00N 40°38' W 074°10'0 0.0
2018-Feb-22 11:30N 40°38' W 074°10'1 2.3
2018-Feb-22 11:00N 40°39' W 074°11'0 0.6
2018-Feb-22 10:29N 40°39' W 074°11'3 5.8
2018-Feb-22 10:01N 40°39' W 074°07'1 2.8
2018-Feb-22 09:30N 40°40' W 074°09'1 1.5
2018-Feb-22 09:00N 40°40' W 074°08'0 0.0
2018-Feb-22 08:30N 40°40' W 074°08'0 0.0
2018-Feb-22 08:00N 40°40' W 074°08'0 0.0
2018-Feb-22 07:31N 40°40' W 074°08'0 0.0
2018-Feb-22 07:00N 40°40' W 074°08'0 0.0
2018-Feb-22 06:30N 40°40' W 074°08'0 0.0
2018-Feb-22 06:01N 40°40' W 074°08'0 0.0
2018-Feb-22 05:31N 40°40' W 074°08'0 0.0
2018-Feb-22 05:01N 40°40' W 074°08'0 0.0
2018-Feb-22 04:30N 40°40' W 074°08'0 0.0
2018-Feb-22 04:01N 40°40' W 074°08'0 0.0
2018-Feb-22 03:30N 40°40' W 074°08'1 1.8
2018-Feb-22 03:00N 40°40' W 074°09'0 0.1
2018-Feb-22 02:31N 40°40' W 074°09'0 0.3
2018-Feb-22 02:00N 40°40' W 074°09'0 0.0
2018-Feb-22 01:30N 40°40' W 074°09'0 0.7
2018-Feb-22 01:00N 40°40' W 074°09'0 1.0
2018-Feb-22 00:30N 40°40' W 074°08'0 0.0
2018-Feb-22 00:00N 40°40' W 074°08'0 0.0
2018-Feb-21 23:30N 40°40' W 074°08'0 0.0
2018-Feb-21 23:00N 40°40' W 074°08'0 0.0
2018-Feb-21 22:30N 40°40' W 074°08'0 0.0
2018-Feb-21 22:01N 40°40' W 074°08'0 0.0
2018-Feb-21 21:31N 40°40' W 074°08'0 0.0
2018-Feb-21 21:00N 40°40' W 074°08'0 0.0
2018-Feb-21 20:31N 40°40' W 074°08'0 0.1
2018-Feb-21 20:00N 40°40' W 074°08'0 0.1
2018-Feb-21 19:31N 40°40' W 074°08'0 0.0
2018-Feb-21 19:00N 40°40' W 074°08'3 5.8
2018-Feb-21 18:30N 40°39' W 074°11'3 1.9
2018-Feb-21 17:04N 40°36' W 074°12'0 0.5
2018-Feb-21 16:58N 40°36' W 074°12'1 3.1
2018-Feb-21 16:30N 40°35' W 074°13'2 3.8
2018-Feb-21 15:59N 40°33' W 074°15'1 0.4
2018-Feb-21 14:46N 40°33' W 074°14'3 3.0
2018-Feb-21 13:47N 40°36' W 074°12'0 0.4
2018-Feb-21 13:28N 40°36' W 074°12'0 0.2
2018-Feb-21 12:39N 40°36' W 074°12'0 0.0
2018-Feb-21 11:16N 40°36' W 074°12'0 0.0
2018-Feb-21 11:00N 40°36' W 074°12'0 0.0
2018-Feb-21 10:28N 40°36' W 074°12'0 0.0
2018-Feb-21 09:53N 40°36' W 074°12'0 0.0
2018-Feb-21 09:29N 40°36' W 074°12'0 0.0
2018-Feb-21 05:55N 40°36' W 074°12'1 1.8
2018-Feb-21 05:25N 40°35' W 074°13'1 2.3
2018-Feb-21 04:51N 40°36' W 074°12'0 0.4
2018-Feb-21 03:49N 40°36' W 074°12'2 6.6
2018-Feb-21 03:29N 40°38' W 074°12'4 9.0
2018-Feb-21 03:00N 40°39' W 074°06'2 3.5
2018-Feb-21 02:30N 40°40' W 074°05'0 0.0
2018-Feb-21 02:00N 40°40' W 074°05'0 0.0
2018-Feb-21 01:30N 40°40' W 074°05'0 0.0
2018-Feb-21 01:00N 40°40' W 074°05'0 0.0
2018-Feb-21 00:31N 40°40' W 074°05'0 0.0
2018-Feb-21 00:00N 40°40' W 074°05'0 0.0
2018-Feb-20 23:30N 40°40' W 074°05'0 0.0
2018-Feb-20 23:00N 40°40' W 074°05'0 0.0
2018-Feb-20 22:30N 40°40' W 074°05'0 0.0
2018-Feb-20 22:00N 40°40' W 074°05'0 0.0
2018-Feb-20 21:31N 40°40' W 074°05'0 0.0
2018-Feb-20 21:00N 40°40' W 074°05'0 0.0
2018-Feb-20 20:31N 40°40' W 074°05'0 0.3
2018-Feb-20 20:00N 40°40' W 074°05'0 0.0
2018-Feb-20 19:30N 40°40' W 074°05'0 0.1
2018-Feb-20 19:00N 40°40' W 074°05'2 3.5
2018-Feb-20 18:30N 40°39' W 074°06'1 1.0
2018-Feb-20 18:00N 40°39' W 074°07'0 0.0
2018-Feb-20 17:30N 40°39' W 074°07'2 4.9
2018-Feb-20 17:01N 40°40' W 074°04'0 0.0
2018-Feb-20 16:30N 40°40' W 074°04'1 2.6
2018-Feb-20 16:01N 40°39' W 074°05'1 2.7
2018-Feb-20 15:31N 40°39' W 074°07'2 3.5
2018-Feb-20 15:01N 40°39' W 074°05'2 3.2
2018-Feb-20 14:31N 40°38' W 074°03'1 2.6
2018-Feb-20 14:01N 40°39' W 074°04'4 8.2
2018-Feb-20 13:30N 40°38' W 074°10'0 0.0
2018-Feb-20 13:00N 40°38' W 074°10'1 2.2
2018-Feb-20 12:29N 40°39' W 074°11'3 6.1
2018-Feb-20 12:00N 40°36' W 074°12'0 0.0
2018-Feb-20 11:30N 40°36' W 074°12'0 0.2
2018-Feb-20 10:59N 40°36' W 074°12'0 0.7
2018-Feb-20 10:28N 40°36' W 074°12'2 4.9
2018-Feb-20 10:00N 40°38' W 074°12'1 2.6
2018-Feb-20 09:30N 40°38' W 074°10'0 0.0
2018-Feb-20 09:00N 40°38' W 074°10'0 0.0
2018-Feb-20 08:30N 40°38' W 074°10'0 0.0
2018-Feb-20 08:00N 40°38' W 074°10'0 0.0
2018-Feb-20 07:30N 40°38' W 074°10'0 0.0
2018-Feb-20 07:00N 40°38' W 074°10'0 0.0
2018-Feb-20 06:31N 40°38' W 074°10'0 0.0
2018-Feb-20 05:59N 40°38' W 074°10'0 0.0
2018-Feb-20 05:29N 40°38' W 074°10'0 0.0
2018-Feb-20 05:00N 40°38' W 074°10'0 0.0
2018-Feb-20 04:29N 40°38' W 074°10'0 0.0
2018-Feb-20 04:00N 40°38' W 074°10'0 0.0
2018-Feb-20 03:30N 40°38' W 074°10'0 0.0
2018-Feb-20 03:00N 40°38' W 074°10'0 0.0
2018-Feb-20 02:30N 40°38' W 074°10'0 0.0
2018-Feb-20 02:00N 40°38' W 074°10'0 0.0
2018-Feb-20 01:29N 40°38' W 074°10'0 0.0
2018-Feb-20 01:00N 40°38' W 074°10'0 0.0
2018-Feb-20 00:31N 40°38' W 074°10'0 0.0
2018-Feb-19 23:59N 40°38' W 074°10'1 1.6
2018-Feb-19 23:30N 40°39' W 074°09'1 1.2
2018-Feb-19 23:00N 40°40' W 074°09'2 3.5
2018-Feb-19 22:30N 40°39' W 074°06'2 4.1
2018-Feb-19 22:00N 40°39' W 074°04'0 0.5
2018-Feb-19 21:30N 40°39' W 074°04'1 1.3
2018-Feb-19 21:00N 40°39' W 074°04'1 2.6
2018-Feb-19 20:30N 40°40' W 074°05'0 0.0
2018-Feb-19 20:00N 40°40' W 074°05'0 0.0
2018-Feb-19 19:30N 40°40' W 074°05'0 0.0
2018-Feb-19 19:00N 40°40' W 074°05'0 0.0
2018-Feb-19 18:30N 40°40' W 074°05'0 0.0
2018-Feb-19 18:00N 40°40' W 074°05'0 0.0
2018-Feb-19 17:30N 40°40' W 074°05'0 0.0
2018-Feb-19 17:00N 40°40' W 074°05'0 0.0
2018-Feb-19 16:30N 40°40' W 074°05'2 3.0
2018-Feb-19 16:00N 40°39' W 074°03'0 0.9
2018-Feb-19 15:31N 40°40' W 074°04'1 2.0
2018-Feb-19 15:00N 40°40' W 074°05'0 0.0
2018-Feb-19 14:30N 40°40' W 074°05'0 0.0
2018-Feb-19 14:01N 40°40' W 074°05'0 0.0
2018-Feb-19 13:30N 40°40' W 074°05'0 0.0
2018-Feb-19 13:00N 40°40' W 074°05'0 0.0
2018-Feb-19 12:30N 40°40' W 074°05'0 0.0
2018-Feb-19 12:00N 40°40' W 074°05'3 6.1
2018-Feb-19 11:30N 40°41' W 074°01'3 5.2
2018-Feb-19 11:01N 40°42' W 073°58'0 0.7
2018-Feb-19 10:30N 40°42' W 073°59'2 4.9
2018-Feb-19 10:00N 40°41' W 074°01'3 5.9
2018-Feb-19 09:30N 40°40' W 074°05'0 0.0
2018-Feb-19 09:00N 40°40' W 074°05'0 0.0
2018-Feb-19 08:30N 40°40' W 074°05'0 0.0
2018-Feb-19 08:00N 40°40' W 074°05'0 0.0
2018-Feb-19 07:30N 40°40' W 074°05'0 0.0
2018-Feb-19 07:00N 40°40' W 074°05'0 0.0
2018-Feb-19 06:30N 40°40' W 074°05'0 0.0
2018-Feb-19 06:00N 40°40' W 074°05'0 0.0
2018-Feb-19 05:30N 40°40' W 074°05'0 0.0
2018-Feb-19 05:00N 40°40' W 074°05'0 0.0
2018-Feb-19 04:30N 40°40' W 074°05'0 0.0
2018-Feb-19 04:00N 40°40' W 074°05'0 0.0
2018-Feb-19 03:30N 40°40' W 074°05'0 0.0
2018-Feb-19 03:00N 40°40' W 074°05'0 0.0
2018-Feb-19 02:30N 40°40' W 074°05'0 0.0
2018-Feb-19 02:00N 40°40' W 074°05'0 0.0
2018-Feb-19 01:30N 40°40' W 074°05'0 0.0
2018-Feb-19 00:59N 40°40' W 074°05'0 0.0
2018-Feb-19 00:30N 40°40' W 074°05'0 0.0
2018-Feb-19 00:01N 40°40' W 074°05'0 0.0
2018-Feb-18 23:29N 40°40' W 074°05'0 0.0
2018-Feb-18 23:00N 40°40' W 074°05'0 0.0
2018-Feb-18 22:29N 40°40' W 074°05'0 0.0
2018-Feb-18 22:00N 40°40' W 074°05'0 0.5
2018-Feb-18 21:30N 40°40' W 074°05'2 3.1
2018-Feb-18 20:59N 40°39' W 074°03'2 3.7
2018-Feb-18 20:30N 40°37' W 074°03'3 5.3
2018-Feb-18 20:00N 40°39' W 074°06'2 4.6
2018-Feb-18 19:30N 40°40' W 074°08'0 0.0
2018-Feb-18 19:00N 40°40' W 074°08'0 0.0
2018-Feb-18 18:30N 40°40' W 074°08'0 0.0
2018-Feb-18 18:00N 40°40' W 074°08'0 0.0
2018-Feb-18 17:30N 40°40' W 074°08'0 0.0
2018-Feb-18 17:00N 40°40' W 074°08'0 0.0
2018-Feb-18 16:31N 40°40' W 074°08'0 0.0
2018-Feb-18 16:00N 40°40' W 074°08'0 0.0
2018-Feb-18 15:30N 40°40' W 074°08'0 0.0
2018-Feb-18 14:59N 40°40' W 074°08'0 0.1
2018-Feb-18 14:30N 40°40' W 074°08'0 0.0
2018-Feb-18 13:59N 40°40' W 074°08'0 0.0
2018-Feb-18 13:30N 40°40' W 074°08'0 0.0
2018-Feb-18 13:00N 40°40' W 074°08'0 0.0
2018-Feb-18 12:29N 40°40' W 074°08'0 0.0
2018-Feb-18 12:00N 40°40' W 074°08'0 0.0
2018-Feb-18 11:30N 40°40' W 074°08'0 0.0
2018-Feb-18 11:00N 40°40' W 074°08'0 0.0
2018-Feb-18 10:30N 40°40' W 074°08'0 0.0
2018-Feb-18 10:00N 40°40' W 074°08'1 2.7
2018-Feb-18 09:29N 40°39' W 074°09'2 3.2
2018-Feb-18 09:00N 40°39' W 074°07'2 5.0
2018-Feb-18 08:30N 40°39' W 074°04'2 3.2
2018-Feb-18 08:01N 40°39' W 074°06'0 0.0
2018-Feb-18 07:30N 40°39' W 074°06'2 4.8
2018-Feb-18 07:00N 40°38' W 074°09'3 5.1
2018-Feb-18 06:31N 40°38' W 074°12'5 7.3
2018-Feb-18 05:53N 40°33' W 074°14'1 0.4
2018-Feb-18 02:17N 40°32' W 074°15'1 3.5
2018-Feb-18 01:54N 40°33' W 074°14'3 4.2
2018-Feb-18 01:08N 40°36' W 074°12'1 4.4
2018-Feb-18 00:59N 40°37' W 074°12'2 3.9
2018-Feb-18 00:30N 40°39' W 074°11'2 4.9
2018-Feb-18 00:00N 40°39' W 074°08'2 4.0
2018-Feb-17 23:30N 40°39' W 074°06'0 0.5
2018-Feb-17 22:59N 40°39' W 074°06'0 0.0
2018-Feb-17 22:30N 40°39' W 074°06'0 0.0
2018-Feb-17 22:00N 40°39' W 074°06'0 0.0
2018-Feb-17 21:30N 40°39' W 074°06'0 0.0
2018-Feb-17 21:00N 40°39' W 074°06'1 1.6
2018-Feb-17 20:30N 40°39' W 074°05'0 0.5
2018-Feb-17 20:00N 40°39' W 074°05'4 7.0
2018-Feb-17 19:29N 40°38' W 074°10'0 0.0
2018-Feb-17 19:00N 40°38' W 074°10'0 0.0
2018-Feb-17 18:30N 40°38' W 074°10'0 0.0
2018-Feb-17 18:00N 40°38' W 074°10'0 0.0
2018-Feb-17 17:30N 40°38' W 074°10'0 0.0
2018-Feb-17 17:00N 40°38' W 074°10'0 0.0
2018-Feb-17 16:29N 40°38' W 074°10'0 0.0
2018-Feb-17 15:59N 40°38' W 074°10'0 0.0
2018-Feb-17 15:30N 40°38' W 074°10'0 0.0
2018-Feb-17 15:00N 40°38' W 074°10'0 0.0
2018-Feb-17 14:30N 40°38' W 074°10'0 0.0
2018-Feb-17 14:00N 40°38' W 074°10'0 0.2
2018-Feb-17 13:30N 40°38' W 074°10'2 4.4
2018-Feb-17 12:59N 40°40' W 074°08'0 0.0
2018-Feb-17 12:30N 40°40' W 074°08'0 0.0
2018-Feb-17 12:01N 40°40' W 074°08'0 0.0
2018-Feb-17 11:30N 40°40' W 074°08'0 0.0
2018-Feb-17 11:00N 40°40' W 074°08'0 0.0
2018-Feb-17 10:30N 40°40' W 074°08'2 3.7
2018-Feb-17 10:01N 40°39' W 074°09'1 2.6
2018-Feb-17 09:29N 40°40' W 074°08'0 0.5
2018-Feb-17 09:00N 40°40' W 074°09'1 3.0
2018-Feb-17 08:30N 40°38' W 074°09'0 0.8
2018-Feb-17 08:00N 40°38' W 074°10'0 0.0
2018-Feb-17 07:30N 40°38' W 074°10'0 0.0
2018-Feb-17 07:00N 40°38' W 074°10'0 0.0
2018-Feb-17 06:31N 40°38' W 074°10'0 0.0
2018-Feb-17 06:00N 40°38' W 074°10'0 0.0
2018-Feb-17 05:29N 40°38' W 074°10'0 0.0
2018-Feb-17 05:00N 40°38' W 074°10'0 0.0
2018-Feb-17 04:30N 40°38' W 074°10'0 0.0
2018-Feb-17 04:00N 40°38' W 074°10'0 0.0
2018-Feb-17 03:30N 40°38' W 074°10'0 0.0
2018-Feb-17 03:00N 40°38' W 074°10'0 0.0
2018-Feb-17 02:30N 40°38' W 074°10'0 0.0
2018-Feb-17 02:01N 40°38' W 074°10'0 0.0
2018-Feb-17 01:30N 40°38' W 074°10'0 0.0
2018-Feb-17 01:00N 40°38' W 074°10'0 0.0
2018-Feb-17 00:30N 40°38' W 074°10'0 0.0
2018-Feb-17 00:00N 40°38' W 074°10'2 4.7
2018-Feb-16 23:31N 40°41' W 074°08'0 0.7
2018-Feb-16 23:00N 40°41' W 074°09'1 1.2
2018-Feb-16 22:30N 40°40' W 074°08'2 3.5
2018-Feb-16 22:01N 40°39' W 074°08'3 6.3
2018-Feb-16 21:30N 40°39' W 074°04'1 1.9
2018-Feb-16 21:00N 40°40' W 074°04'0 0.0
2018-Feb-16 20:30N 40°40' W 074°04'0 0.0
2018-Feb-16 20:00N 40°40' W 074°04'1 1.3
2018-Feb-16 19:30N 40°39' W 074°03'1 2.1
2018-Feb-16 19:01N 40°40' W 074°05'0 0.7
2018-Feb-16 18:30N 40°40' W 074°05'0 0.0
2018-Feb-16 18:01N 40°40' W 074°05'0 0.0
2018-Feb-16 17:31N 40°40' W 074°05'0 0.0
2018-Feb-16 17:01N 40°40' W 074°05'0 0.0
2018-Feb-16 16:30N 40°40' W 074°05'0 0.0
2018-Feb-16 16:00N 40°40' W 074°05'0 0.0
2018-Feb-16 15:30N 40°40' W 074°05'0 0.0
2018-Feb-16 15:01N 40°40' W 074°05'1 1.3
2018-Feb-16 14:30N 40°40' W 074°04'0 0.0
2018-Feb-16 13:59N 40°40' W 074°04'2 5.0
2018-Feb-16 13:30N 40°38' W 074°03'2 3.7
2018-Feb-16 13:00N 40°40' W 074°04'1 1.1
2018-Feb-16 12:30N 40°40' W 074°04'0 0.0
2018-Feb-16 12:00N 40°40' W 074°04'0 0.0
2018-Feb-16 11:30N 40°40' W 074°04'0 0.0
2018-Feb-16 11:00N 40°40' W 074°04'0 0.0
2018-Feb-16 10:30N 40°40' W 074°04'0 0.0
2018-Feb-16 10:00N 40°40' W 074°04'0 0.0
2018-Feb-16 09:30N 40°40' W 074°04'0 0.0
2018-Feb-16 09:00N 40°40' W 074°04'0 0.0
2018-Feb-16 08:30N 40°40' W 074°04'0 0.0
2018-Feb-16 08:00N 40°40' W 074°04'0 0.9
2018-Feb-16 07:30N 40°40' W 074°04'1 1.5
2018-Feb-16 07:00N 40°39' W 074°05'0 0.0
2018-Feb-16 06:30N 40°39' W 074°05'1 1.7
2018-Feb-16 06:00N 40°39' W 074°06'3 5.6
2018-Feb-16 05:30N 40°38' W 074°10'0 0.0
2018-Feb-16 04:59N 40°38' W 074°10'0 0.0
2018-Feb-16 04:29N 40°38' W 074°10'0 0.0
2018-Feb-16 04:00N 40°38' W 074°10'0 0.0
2018-Feb-16 03:30N 40°38' W 074°10'0 0.0
2018-Feb-16 03:00N 40°38' W 074°10'0 0.0
2018-Feb-16 02:30N 40°38' W 074°10'0 0.0
2018-Feb-16 02:00N 40°38' W 074°10'0 0.0
2018-Feb-16 01:29N 40°38' W 074°10'0 0.0
2018-Feb-16 00:59N 40°38' W 074°10'1 1.4
2018-Feb-16 00:30N 40°39' W 074°11'4 7.0
2018-Feb-16 00:00N 40°35' W 074°12'0 0.3
2018-Feb-15 23:18N 40°35' W 074°12'0 0.3
2018-Feb-15 23:00N 40°35' W 074°12'1 3.0
2018-Feb-15 22:30N 40°34' W 074°13'1 2.6
2018-Feb-15 22:00N 40°33' W 074°14'1 1.0
2018-Feb-15 21:24N 40°33' W 074°14'2 4.9
2018-Feb-15 20:59N 40°35' W 074°12'2 5.2
2018-Feb-15 20:30N 40°38' W 074°12'2 4.5
2018-Feb-15 20:00N 40°39' W 074°10'3 6.2
2018-Feb-15 19:30N 40°39' W 074°05'0 0.7
2018-Feb-15 18:58N 40°39' W 074°05'0 0.0
2018-Feb-15 18:30N 40°39' W 074°05'0 0.4
2018-Feb-15 18:00N 40°39' W 074°05'1 1.8
2018-Feb-15 17:30N 40°40' W 074°04'0 0.8
2018-Feb-15 17:00N 40°40' W 074°05'0 0.0
2018-Feb-15 16:30N 40°40' W 074°05'0 0.0
2018-Feb-15 16:00N 40°40' W 074°05'0 0.0
2018-Feb-15 15:30N 40°40' W 074°05'0 0.0
2018-Feb-15 15:00N 40°40' W 074°05'2 3.3
2018-Feb-15 14:30N 40°41' W 074°03'0 0.7
2018-Feb-15 14:00N 40°41' W 074°03'3 5.1
2018-Feb-15 13:30N 40°38' W 074°04'0 0.1
2018-Feb-15 13:00N 40°38' W 074°04'1 2.9
2018-Feb-15 12:30N 40°39' W 074°06'3 5.0
2018-Feb-15 12:00N 40°40' W 074°09'1 1.1
2018-Feb-15 11:30N 40°39' W 074°09'2 3.1
2018-Feb-15 11:00N 40°39' W 074°07'0 0.6
2018-Feb-15 10:30N 40°39' W 074°07'2 3.9
2018-Feb-15 10:00N 40°39' W 074°10'1 2.2
2018-Feb-15 09:29N 40°39' W 074°11'0 0.4
2018-Feb-15 09:00N 40°38' W 074°11'0 0.3
2018-Feb-15 08:29N 40°38' W 074°12'2 3.9
2018-Feb-15 08:00N 40°37' W 074°12'1 2.4
2018-Feb-15 07:30N 40°35' W 074°12'0 0.0
2018-Feb-15 07:00N 40°35' W 074°12'0 0.0
2018-Feb-15 06:30N 40°35' W 074°12'0 0.0
2018-Feb-15 06:00N 40°35' W 074°12'0 0.0
2018-Feb-15 05:30N 40°35' W 074°12'0 0.0
2018-Feb-15 05:00N 40°35' W 074°12'0 0.0
2018-Feb-15 04:30N 40°35' W 074°12'0 0.0
2018-Feb-15 04:00N 40°35' W 074°12'0 0.0
2018-Feb-15 03:30N 40°35' W 074°12'0 0.0
2018-Feb-15 02:58N 40°35' W 074°12'0 0.0
2018-Feb-15 02:29N 40°35' W 074°12'0 0.0
2018-Feb-14 22:07N 40°35' W 074°12'0 0.0
2018-Feb-14 21:59N 40°35' W 074°12'0 0.0
2018-Feb-14 21:30N 40°35' W 074°12'0 0.0
2018-Feb-14 21:00N 40°35' W 074°12'2 5.0
2018-Feb-14 20:30N 40°33' W 074°14'1 1.1
2018-Feb-14 19:36N 40°33' W 074°15'1 5.5
2018-Feb-14 19:24N 40°33' W 074°14'4 9.4
2018-Feb-14 19:00N 40°37' W 074°12'2 4.7
2018-Feb-14 18:30N 40°38' W 074°10'0 0.0
2018-Feb-14 18:00N 40°38' W 074°10'0 0.0
2018-Feb-14 17:30N 40°38' W 074°10'0 0.0
2018-Feb-14 17:00N 40°38' W 074°10'0 0.0
2018-Feb-14 16:30N 40°38' W 074°10'0 0.0
2018-Feb-14 16:00N 40°38' W 074°10'2 4.8
2018-Feb-14 15:30N 40°39' W 074°07'1 1.2
2018-Feb-14 15:00N 40°39' W 074°06'0 0.1
2018-Feb-14 14:30N 40°39' W 074°06'2 4.6
2018-Feb-14 14:00N 40°39' W 074°09'3 5.8
2018-Feb-14 13:30N 40°42' W 074°08'0 0.1
2018-Feb-14 13:00N 40°42' W 074°08'2 4.9
2018-Feb-14 12:30N 40°39' W 074°09'0 0.6
2018-Feb-14 12:00N 40°39' W 074°09'2 3.3
2018-Feb-14 11:28N 40°39' W 074°11'0 0.6
2018-Feb-14 11:00N 40°39' W 074°11'3 6.2
2018-Feb-14 10:30N 40°39' W 074°07'3 6.5
2018-Feb-14 10:00N 40°38' W 074°03'2 4.5
2018-Feb-14 09:30N 40°39' W 074°05'3 6.8
2018-Feb-14 09:00N 40°38' W 074°10'0 0.0
2018-Feb-14 08:30N 40°38' W 074°10'0 0.0
2018-Feb-14 08:00N 40°38' W 074°10'0 0.0
2018-Feb-14 07:29N 40°38' W 074°10'0 0.0
2018-Feb-14 07:00N 40°38' W 074°10'0 0.0
2018-Feb-14 06:28N 40°38' W 074°10'2 4.1
2018-Feb-14 06:00N 40°40' W 074°08'0 0.4
2018-Feb-14 05:30N 40°40' W 074°08'0 0.1
2018-Feb-14 05:00N 40°40' W 074°08'2 3.9
2018-Feb-14 04:30N 40°38' W 074°10'0 0.3
2018-Feb-14 04:00N 40°38' W 074°10'0 0.0
2018-Feb-14 03:30N 40°38' W 074°10'0 0.0
2018-Feb-14 03:00N 40°38' W 074°10'0 0.0
2018-Feb-14 02:28N 40°38' W 074°10'0 0.0
2018-Feb-14 02:00N 40°38' W 074°10'0 0.0
2018-Feb-14 01:30N 40°38' W 074°10'0 0.0
2018-Feb-14 01:00N 40°38' W 074°10'0 0.0
2018-Feb-14 00:29N 40°38' W 074°10'0 0.0
2018-Feb-14 00:00N 40°38' W 074°10'1 1.2
2018-Feb-13 23:30N 40°38' W 074°09'2 3.9
2018-Feb-13 23:00N 40°39' W 074°07'3 5.5
2018-Feb-13 22:30N 40°40' W 074°03'1 1.2
2018-Feb-13 22:00N 40°40' W 074°03'1 2.0
2018-Feb-13 21:30N 40°40' W 074°04'0 0.0
2018-Feb-13 21:00N 40°40' W 074°04'0 0.0
2018-Feb-13 20:30N 40°40' W 074°04'0 0.0
2018-Feb-13 20:00N 40°40' W 074°04'0 0.5
2018-Feb-13 19:30N 40°40' W 074°04'3 5.3
2018-Feb-13 19:00N 40°37' W 074°03'3 5.7
2018-Feb-13 18:30N 40°40' W 074°04'0 0.0
2018-Feb-13 18:00N 40°40' W 074°04'0 0.0
2018-Feb-13 17:30N 40°40' W 074°04'0 0.0
2018-Feb-13 17:00N 40°40' W 074°04'0 0.0
2018-Feb-13 16:30N 40°40' W 074°04'0 0.0
2018-Feb-13 16:00N 40°40' W 074°04'0 0.0
2018-Feb-13 15:30N 40°40' W 074°04'2 3.7
2018-Feb-13 15:00N 40°39' W 074°06'0 0.1
2018-Feb-13 14:30N 40°39' W 074°06'0 0.0
2018-Feb-13 14:00N 40°39' W 074°06'1 1.0
2018-Feb-13 13:30N 40°39' W 074°05'2 4.4
2018-Feb-13 13:00N 40°38' W 074°03'2 4.5
2018-Feb-13 12:30N 40°40' W 074°04'0 0.1
2018-Feb-13 12:00N 40°40' W 074°04'0 0.0
2018-Feb-13 11:30N 40°40' W 074°04'0 0.0
2018-Feb-13 11:00N 40°40' W 074°04'0 0.0
2018-Feb-13 10:30N 40°40' W 074°04'0 0.0
2018-Feb-13 10:00N 40°40' W 074°04'0 0.0
2018-Feb-13 09:30N 40°40' W 074°04'0 0.0
2018-Feb-13 09:00N 40°40' W 074°04'0 0.0
2018-Feb-13 08:30N 40°40' W 074°04'1 1.5
2018-Feb-13 08:00N 40°40' W 074°03'5 9.3
2018-Feb-13 07:30N 40°43' W 073°59'0 0.5
2018-Feb-13 07:00N 40°43' W 073°58'2 3.2
2018-Feb-13 06:30N 40°42' W 074°00'2 4.3
2018-Feb-13 06:00N 40°40' W 074°02'1 2.8
2018-Feb-13 05:30N 40°40' W 074°04'0 0.0
2018-Feb-13 05:00N 40°40' W 074°04'0 0.0
2018-Feb-13 04:30N 40°40' W 074°04'0 0.0
2018-Feb-13 04:00N 40°40' W 074°04'0 0.0
2018-Feb-13 03:30N 40°40' W 074°04'0 0.0
2018-Feb-13 03:00N 40°40' W 074°04'0 0.0
2018-Feb-13 02:30N 40°40' W 074°04'0 0.0
2018-Feb-13 02:00N 40°40' W 074°04'0 0.0
2018-Feb-13 01:30N 40°40' W 074°04'0 0.9
2018-Feb-13 01:00N 40°40' W 074°04'0 0.8
2018-Feb-13 00:31N 40°40' W 074°04'0 0.1
2018-Feb-13 00:00N 40°40' W 074°04'0 0.0
2018-Feb-12 23:30N 40°40' W 074°04'1 1.8
2018-Feb-12 23:01N 40°39' W 074°03'1 2.6
2018-Feb-12 22:29N 40°40' W 074°05'0 0.0
2018-Feb-12 22:00N 40°40' W 074°05'2 3.2
2018-Feb-12 21:30N 40°39' W 074°06'1 2.3
2018-Feb-12 21:00N 40°39' W 074°07'3 6.0
2018-Feb-12 20:30N 40°38' W 074°03'1 2.5
2018-Feb-12 20:00N 40°37' W 074°03'4 8.2
2018-Feb-12 19:29N 40°39' W 074°08'1 2.5
2018-Feb-12 19:00N 40°38' W 074°10'0 0.0
2018-Feb-12 18:28N 40°38' W 074°10'2 5.1
2018-Feb-12 18:00N 40°40' W 074°08'0 0.0
2018-Feb-12 17:30N 40°40' W 074°08'0 0.0
2018-Feb-12 17:00N 40°40' W 074°08'0 0.0
2018-Feb-12 16:30N 40°40' W 074°08'  

Dump ship's entire track history